Arthur Cunha

Chief Scout - Fortaleza
5 Dec 2027
Sunday
Process

Personality

Adaptability (20) Ambition (3) Controversy (2) Loyalty (5) Pressure (8) Professionalism (6) Sportsmanship (4) Temperament (14)

Profile

Coaching Style Democratic
License Continental Pro
Determination 9
Man Management 11
Motivating 7
Discipline 6
Job Satisfaction
100%
Fatigue
0%
Role Chief Scout
Wage 107.0K p/w
Contract 14.03.2029

Performance

Behaviour Good
Training Effectiveness
46%
Player Development
45%
Injury Prevention
60%
Tactical Implementation
30%

Recent Events

Attended a recruitment meeting now
Recommended a transfer target now
Recommended a transfer target now
Assessed a player now
Attended a recruitment meeting 7d ago
Recommended a transfer target 7d ago
Recommended a transfer target 7d ago
Recommended a transfer target 14d ago

Currently Monitoring

150
Player Club Status Ability Confidence Watched Last Observed Latest Vote
Kasper Høgh Huracán Active 129 / 134 40% 1 03.12.2027 -
Alexis Cuello San Lorenzo Active 125 / 129 40% 1 03.12.2027 -
Tai Baribo Austin FC Active 129 / 122 40% 1 03.12.2027 -
Rhuan Gabriel Cruzeiro Negotiating 101 / 106 76% 1 01.12.2027 -
Cheikh Sabaly Vancouver Whitecaps Active 121 / 113 40% 1 30.11.2027 -
Sam Surridge Nashville SC Active 137 / 135 40% 1 30.11.2027 -
Yuri Tanque Criciuma Active 127 / 130 40% 1 30.11.2027 -
Breno America Mineiro Active 100 / 114 76% 1 12.07.2027 Approve
Tyrese Campbell Sheffield United Active 133 / 126 40% 2 05.07.2027 -
Boubacar Kamara Aston Villa Active 161 / 168 40% 1 05.07.2027 -
Josh Keeley Luton Town Active 130 / 131 40% 5 28.06.2027 -
Robin Risser RC Lens Active 142 / 144 40% 3 28.06.2027 -
Lagartinho Portimonense Active 95 / 101 40% 1 14.06.2027 -
Mile Svilar AS Roma Active 165 / 166 40% 4 01.06.2027 -
Fran Vieites Walsall Active 121 / 125 40% 4 01.06.2027 -
Rustam Yatimov Rostov Active 113 / 120 40% 1 01.06.2027 -
Caoimhin Kelleher Brentford Active 154 / 152 40% 16 31.05.2027 -
Riccardo Gagno Vicenza Active 116 / 112 40% 3 31.05.2027 -
Balázs Tóth Blackburn Rovers Active 135 / 124 40% 8 27.05.2027 -
Nathan Trott Cardiff City Active 120 / 129 40% 10 26.05.2027 -
Felipe Preis Andorra Active 77 / 97 40% 2 26.05.2027 -
Elia Caprile Cagliari Active 149 / 150 40% 5 24.05.2027 -
Mads Hermansen West Ham United Active 149 / 144 40% 5 23.05.2027 -
Grégoire Coudert Burnley Active 128 / 133 40% 3 23.05.2027 -
Zion Suzuki Aston Villa Active 151 / 141 40% 4 22.05.2027 -
Anthony Patterson Wrexham Active 137 / 124 40% 10 22.05.2027 -
Dean Henderson Crystal Palace Active 143 / 161 40% 8 22.05.2027 -
Lukas Jensen Millwall Active 125 / 112 40% 3 21.05.2027 -
Simone Scuffet Pisa Active 140 / 125 40% 6 20.05.2027 -
Vladan Kovačević Norwich City Active 117 / 118 40% 5 20.05.2027 -
James Trafford Leeds United Active 149 / 158 40% 14 19.05.2027 -
Robin Roefs Sunderland Active 145 / 143 40% 10 19.05.2027 -
Miguel Gouveia Sporting CP Active 92 / 108 40% 2 17.05.2027 -
Gonçalo Silva Porto Active 80 / 95 40% 1 17.05.2027 -
Michael Cooper Sheffield United Active 136 / 141 40% 4 13.05.2027 -
Tarık Çetin Fatih Karagumruk Active 109 / 106 40% 1 12.05.2027 -
Jonathan Klinsmann Cesena Active 129 / 127 40% 1 11.05.2027 -
Bilal Bayazıt Kayserispor Active 124 / 117 40% 2 09.05.2027 -
George Wickens Lincoln City Active 125 / 113 40% 3 09.05.2027 -
Fletcher Smythe-Lowe Estoril Praia Active 85 / 108 40% 1 09.05.2027 -
Hubert Charuży Porto Active 89 / 100 40% 1 08.05.2027 -
Juan Diego Arboleda Leones Active 93 / 94 40% 1 08.05.2027 -
Jakub Badžgoň MSK Zilina Active 103 / 119 40% 1 07.05.2027 -
Facundo Jáuregui Huracán Active 97 / 98 40% 1 06.05.2027 -
Lautaro Cueli San Lorenzo Active 101 / 107 40% 1 05.05.2027 -
Thiago Perruisset Boca Juniors Active 97 / 105 40% 1 05.05.2027 -
Arijanet Murić Sassuolo Active 147 / 138 40% 1 01.05.2027 -
Viktor Johansson Stoke City Active 131 / 134 40% 5 27.04.2027 -
Matouš Trmal Teplice Active 116 / 120 40% 1 25.04.2027 -
Alex Meret Napoli Active 150 / 156 40% 7 24.04.2027 -
Andreas Jungdal Westerlo Active 122 / 123 40% 2 21.04.2027 -
Marko Ilić KV Kortrijk Active 123 / 113 40% 2 18.04.2027 -
Jacob Widell Zetterström Derby County Active 138 / 134 40% 3 16.04.2027 -
Brent Gabriel Zulte Waregem Active 119 / 121 40% 1 16.04.2027 -
Murphy Cooper Plymouth Argyle Active 124 / 126 40% 1 13.04.2027 -
Sławomir Abramowicz Jagiellonia Active 122 / 132 40% 2 10.04.2027 -
Luka Veličković Benfica Active 88 / 102 40% 1 09.04.2027 -
Carlos Miguel Palmeiras Active 133 / 132 40% 5 07.04.2027 -
Hugo Souza Corinthians Active 140 / 144 40% 6 06.04.2027 -
Lucas Arcanjo Vitória Active 125 / 136 40% 6 05.04.2027 -
Gabriel Brazão Santos Active 142 / 144 40% 9 31.03.2027 -
Lazar Carević Famalicao Active 138 / 125 40% 11 26.03.2027 -
Sipho Chaine Orlando Pirates Active 128 / 131 40% 2 26.03.2027 -
Uğurcan Çakır Galatasaray Active 134 / 133 40% 1 24.03.2027 -
Patrick Sequeira Casa Pia Active 129 / 139 40% 7 20.03.2027 -
Gabriel Batista Botafogo Active 130 / 137 40% 3 16.03.2027 -
Samuel Soares Benfica Active 124 / 122 40% 9 13.03.2027 -
Juan Soriano Académico de Viseu Active 120 / 126 40% 2 04.03.2027 -
Ignacio de Arruabarrena Arouca Active 135 / 119 40% 5 03.03.2027 -
Raúl Rangel Braga Active 138 / 138 40% 4 28.02.2027 -
Cezary Miszta Rio Ave Active 127 / 140 40% 8 17.02.2027 -
Maílson Al-Taawoun Active 120 / 124 40% 1 17.02.2027 -
João Gonçalves Oliveirense Active 119 / 118 40% 1 10.02.2027 -
Carlos Acevedo Santos Laguna Active 140 / 119 40% 5 05.02.2027 -
Williams Mabunda Ajax Cape Town Active 108 / 115 40% 1 04.02.2027 -
Facundo Cambeses Stade Brestois Active 127 / 139 40% 4 02.02.2027 -
Gustavo Cazonatti Mirassol Active 113 / 117 76% 1 21.12.2026 Approve
Chuchu Ramírez Nacional Active 138 / 119 40% 2 01.12.2026 -
Arthur Cabral Botafogo Active 137 / 130 40% 3 01.12.2026 -
Manuel Roffo Hajduk Split Active 138 / 118 40% 4 29.11.2026 -
Fran Navarro Braga Active 132 / 137 40% 2 26.11.2026 -
Hugo Cuypers Monterrey Active 124 / 129 40% 2 26.11.2026 -
João Félix Dinamo Moscow Active 164 / 156 40% 1 26.11.2026 -
Alan Velasco Boca Juniors Active 124 / 121 40% 1 25.11.2026 -
Dayne St. Clair Inter Miami CF Active 118 / 121 40% 3 15.11.2026 -
Juan Diego Castillo Vitoria Guimaraes Active 110 / 109 40% 1 13.11.2026 -
Pau Víctor Braga Active 147 / 131 40% 3 10.11.2026 -
Fiete Arp OB Active 126 / 125 40% 1 10.11.2026 -
Dodi Lukébakio Benfica Active 149 / 132 40% 3 09.11.2026 -
Yanis Begraoui Estoril Praia Active 138 / 131 40% 2 09.11.2026 -
Vitinho Botafogo Active 139 / 125 40% 1 07.11.2026 -
João Palhinha Benfica Active 159 / 141 40% 1 07.11.2026 -
Ezequiel Centurión River Plate Active 123 / 122 40% 2 06.11.2026 -
Erick Pulga Bahia Active 125 / 135 40% 1 04.11.2026 -
Adriel Torreense Active 110 / 126 40% 4 03.11.2026 -
Anatolii Trubin Feyenoord Active 156 / 147 40% 3 01.11.2026 -
Hidemasa Morita Hull City Active 144 / 150 40% 1 01.11.2026 -
Guilherme Arana Fluminense Active 130 / 140 40% 1 01.11.2026 -
Matheus Mendes Alverca Active 111 / 109 40% 2 28.10.2026 -
Ángel Correa River Plate Active 139 / 149 40% 2 27.10.2026 -
Nuno Santos Sporting CP Active 135 / 133 40% 1 27.10.2026 -
Alberto Costa Porto Active 148 / 155 40% 1 23.10.2026 -
Sikou Niakaté Braga Active 145 / 126 40% 1 23.10.2026 -
Roman Celentano FC Cincinnati Active 125 / 109 40% 2 21.10.2026 -
Luis Ingolotti Atlético Tucumán Active 119 / 116 40% 5 20.10.2026 -
Angus Gunn San Jose Earthquakes Active 121 / 115 40% 2 20.10.2026 -
Patrick Schulte Columbus Crew Active 113 / 119 40% 5 15.10.2026 -
Roberto Ramírez Godoy Cruz Active 121 / 116 40% 3 15.10.2026 -
André Moreira Felgueiras Active 124 / 113 40% 4 11.10.2026 -
Mateo Cassierra Atlético Mineiro Active 140 / 134 40% 1 11.10.2026 -
Nicolò Tresoldi Club Brugge Active 138 / 121 40% 1 11.10.2026 -
Mohamed-Ali Cho Hull City Active 130 / 134 40% 2 10.10.2026 -
Matías Tagliamonte Racing Club Active 124 / 128 40% 1 09.10.2026 -
Emiliano González Almagro Active 119 / 117 40% 1 07.10.2026 -
Bernardo Fontes Braga Active 125 / 115 40% 3 02.10.2026 -
Antonio Gomis Vizela Active 109 / 111 40% 4 01.10.2026 -
Pep Biel Charlotte Football Club Active 123 / 122 40% 1 25.09.2026 -
Alex Palmer Ipswich Town Active 122 / 118 40% 2 24.09.2026 -
Leo Ceara Kashima Antlers Active 134 / 132 40% 2 23.09.2026 -
Martín Ojeda Orlando City Active 134 / 145 40% 1 23.09.2026 -
Drake Callender Minnesota United FC Active 129 / 115 40% 1 19.09.2026 -
Pedro Flamengo Active 143 / 132 40% 1 17.09.2026 -
Gonzalo Fulham Active 145 / 149 40% 1 17.09.2026 -
Andreas Schjelderup Benfica Active 130 / 147 40% 1 16.09.2026 -
Carlos Moreno Pachuca Active 127 / 118 40% 3 14.09.2026 -
Lucão Gil Vicente Active 115 / 120 40% 1 14.09.2026 -
Franco Petroli Lanús Active 129 / 120 40% 1 08.09.2026 -
Samu Aghehowa Nottingham Forest Active 153 / 166 40% 2 29.08.2026 -
Noah Okafor Leeds United Active 146 / 134 40% 1 29.08.2026 -
Morgan Gibbs-White Nottingham Forest Active 162 / 166 40% 1 28.08.2026 -
Víctor Gómez Braga Active 143 / 148 40% 1 28.08.2026 -
Andrés Gudiño Cruz Azul Active 110 / 129 40% 1 27.08.2026 -
Andrew Flamengo Active 133 / 128 40% 1 25.08.2026 -
Yoane Wissa Newcastle United Active 146 / 149 40% 1 24.08.2026 -
Mark Travers Everton Active 143 / 121 40% 1 21.08.2026 -
Ivan Toney Al-Ahli Active 144 / 148 40% 1 19.08.2026 -
Dwight McNeil Crystal Palace Active 128 / 145 40% 1 19.08.2026 -
Dominic Calvert-Lewin Leeds United Active 145 / 154 40% 1 17.08.2026 -
Nicolas Jackson Aston Villa Active 154 / 132 40% 1 17.08.2026 -
Brian Brobbey Sunderland Active 130 / 127 40% 1 16.08.2026 -
Denis Bouanga Brighton Active 139 / 134 40% 1 16.08.2026 -
Oli McBurnie Hull City Active 143 / 138 40% 1 14.08.2026 -
Luis Suárez Sporting CP Active 153 / 140 40% 1 14.08.2026 -
Luis Romo Guadalajara Active 140 / 147 40% 1 12.08.2026 -
Álex Berenguer Lokomotiv Moscow Active 153 / 161 40% 1 12.08.2026 -
Jonathan Dubasin Osasuna Active 133 / 152 40% 1 07.08.2026 -
Antonio Sivera Alavés Active 138 / 128 40% 1 06.08.2026 -
André Ferreira Moreirense Active 110 / 118 40% 1 06.08.2026 -
Álvaro Valles Betis Active 142 / 127 40% 1 03.08.2026 -
Leo Román Deportivo La Coruña Active 139 / 132 40% 1 01.08.2026 -